sensor_id;sensor_type;location;lat;lon;timestamp;temperature;humidity
3942;DHT22;1985;48.592;8.850;2023-12-22T00:01:12;6.70;99.90
3942;DHT22;1985;48.592;8.850;2023-12-22T00:03:41;6.70;99.90
3942;DHT22;1985;48.592;8.850;2023-12-22T00:06:07;6.70;99.90
3942;DHT22;1985;48.592;8.850;2023-12-22T00:08:32;6.70;99.90
3942;DHT22;1985;48.592;8.850;2023-12-22T00:10:58;6.80;99.90
3942;DHT22;1985;48.592;8.850;2023-12-22T00:13:24;6.80;99.90
3942;DHT22;1985;48.592;8.850;2023-12-22T00:15:50;6.80;99.90
3942;DHT22;1985;48.592;8.850;2023-12-22T00:18:15;6.80;99.90
3942;DHT22;1985;48.592;8.850;2023-12-22T00:20:41;6.80;99.90
3942;DHT22;1985;48.592;8.850;2023-12-22T00:23:07;6.90;99.90
3942;DHT22;1985;48.592;8.850;2023-12-22T00:25:32;7.00;99.90
3942;DHT22;1985;48.592;8.850;2023-12-22T00:27:58;7.00;99.90
3942;DHT22;1985;48.592;8.850;2023-12-22T00:30:24;7.10;99.90
3942;DHT22;1985;48.592;8.850;2023-12-22T00:32:50;7.10;99.90
3942;DHT22;1985;48.592;8.850;2023-12-22T00:35:16;7.20;99.90
3942;DHT22;1985;48.592;8.850;2023-12-22T00:37:41;7.30;99.90
3942;DHT22;1985;48.592;8.850;2023-12-22T00:40:07;7.30;99.90
3942;DHT22;1985;48.592;8.850;2023-12-22T00:42:34;7.30;99.90
3942;DHT22;1985;48.592;8.850;2023-12-22T00:45:00;7.30;99.90
3942;DHT22;1985;48.592;8.850;2023-12-22T00:47:26;7.40;99.90
3942;DHT22;1985;48.592;8.850;2023-12-22T00:49:51;7.40;99.90
3942;DHT22;1985;48.592;8.850;2023-12-22T00:52:17;7.50;99.90
3942;DHT22;1985;48.592;8.850;2023-12-22T00:54:42;7.40;99.90
3942;DHT22;1985;48.592;8.850;2023-12-22T00:57:08;7.40;99.90
3942;DHT22;1985;48.592;8.850;2023-12-22T00:59:34;7.50;99.90
3942;DHT22;1985;48.592;8.850;2023-12-22T01:01:59;7.40;99.90
3942;DHT22;1985;48.592;8.850;2023-12-22T01:04:25;7.30;99.90
3942;DHT22;1985;48.592;8.850;2023-12-22T01:06:51;7.10;99.90
3942;DHT22;1985;48.592;8.850;2023-12-22T01:09:17;6.90;99.90
3942;DHT22;1985;48.592;8.850;2023-12-22T01:11:45;6.70;99.90
3942;DHT22;1985;48.592;8.850;2023-12-22T01:14:11;6.60;99.90
3942;DHT22;1985;48.592;8.850;2023-12-22T01:16:39;6.50;99.90
3942;DHT22;1985;48.592;8.850;2023-12-22T01:19:04;6.40;99.90
3942;DHT22;1985;48.592;8.850;2023-12-22T01:21:30;6.40;99.90
3942;DHT22;1985;48.592;8.850;2023-12-22T01:23:56;6.40;99.90
3942;DHT22;1985;48.592;8.850;2023-12-22T01:26:24;6.40;99.90
3942;DHT22;1985;48.592;8.850;2023-12-22T01:28:50;6.40;99.90
3942;DHT22;1985;48.592;8.850;2023-12-22T01:31:16;6.20;99.90
3942;DHT22;1985;48.592;8.850;2023-12-22T01:33:42;6.10;99.90
3942;DHT22;1985;48.592;8.850;2023-12-22T01:36:07;6.00;99.90
3942;DHT22;1985;48.592;8.850;2023-12-22T01:38:33;6.00;99.90
3942;DHT22;1985;48.592;8.850;2023-12-22T01:40:59;5.90;99.90
3942;DHT22;1985;48.592;8.850;2023-12-22T01:43:24;5.90;99.90
3942;DHT22;1985;48.592;8.850;2023-12-22T01:45:54;5.90;99.90
3942;DHT22;1985;48.592;8.850;2023-12-22T01:48:21;5.80;99.90
3942;DHT22;1985;48.592;8.850;2023-12-22T01:50:52;5.90;99.90
3942;DHT22;1985;48.592;8.850;2023-12-22T01:53:19;5.80;99.90
3942;DHT22;1985;48.592;8.850;2023-12-22T01:55:47;5.80;99.90
3942;DHT22;1985;48.592;8.850;2023-12-22T01:58:13;5.80;99.90
3942;DHT22;1985;48.592;8.850;2023-12-22T02:00:38;5.80;99.90
3942;DHT22;1985;48.592;8.850;2023-12-22T02:03:04;5.80;99.90
3942;DHT22;1985;48.592;8.850;2023-12-22T02:05:30;5.80;99.90
3942;DHT22;1985;48.592;8.850;2023-12-22T02:07:55;5.90;99.90
3942;DHT22;1985;48.592;8.850;2023-12-22T02:10:21;6.00;99.90
3942;DHT22;1985;48.592;8.850;2023-12-22T02:12:47;6.10;99.90
3942;DHT22;1985;48.592;8.850;2023-12-22T02:15:14;6.20;99.90
3942;DHT22;1985;48.592;8.850;2023-12-22T02:20:11;6.30;99.90
3942;DHT22;1985;48.592;8.850;2023-12-22T02:22:37;6.40;99.90
3942;DHT22;1985;48.592;8.850;2023-12-22T02:25:03;6.50;99.90
3942;DHT22;1985;48.592;8.850;2023-12-22T02:27:49;6.50;99.90
3942;DHT22;1985;48.592;8.850;2023-12-22T02:30:31;6.50;99.90
3942;DHT22;1985;48.592;8.850;2023-12-22T02:33:04;6.50;99.90
3942;DHT22;1985;48.592;8.850;2023-12-22T02:35:32;6.60;99.90
3942;DHT22;1985;48.592;8.850;2023-12-22T02:38:02;6.60;99.90
3942;DHT22;1985;48.592;8.850;2023-12-22T02:40:28;6.60;99.90
3942;DHT22;1985;48.592;8.850;2023-12-22T02:42:55;6.70;99.90
3942;DHT22;1985;48.592;8.850;2023-12-22T02:45:22;6.70;99.90
3942;DHT22;1985;48.592;8.850;2023-12-22T02:47:48;6.80;99.90
3942;DHT22;1985;48.592;8.850;2023-12-22T02:50:15;6.80;99.90
3942;DHT22;1985;48.592;8.850;2023-12-22T02:52:41;6.60;99.90
3942;DHT22;1985;48.592;8.850;2023-12-22T02:55:07;6.40;99.90
3942;DHT22;1985;48.592;8.850;2023-12-22T02:57:33;6.30;99.90
3942;DHT22;1985;48.592;8.850;2023-12-22T02:59:58;6.20;99.90
3942;DHT22;1985;48.592;8.850;2023-12-22T03:02:24;6.10;99.90
3942;DHT22;1985;48.592;8.850;2023-12-22T03:04:50;6.10;99.90
3942;DHT22;1985;48.592;8.850;2023-12-22T03:07:16;6.00;99.90
3942;DHT22;1985;48.592;8.850;2023-12-22T03:09:42;6.00;99.90
3942;DHT22;1985;48.592;8.850;2023-12-22T03:12:08;5.90;99.90
3942;DHT22;1985;48.592;8.850;2023-12-22T03:14:34;5.90;99.90
3942;DHT22;1985;48.592;8.850;2023-12-22T03:17:00;6.00;99.90
3942;DHT22;1985;48.592;8.850;2023-12-22T03:19:26;6.00;99.90
3942;DHT22;1985;48.592;8.850;2023-12-22T03:21:52;6.10;99.90
3942;DHT22;1985;48.592;8.850;2023-12-22T03:24:17;6.10;99.90
3942;DHT22;1985;48.592;8.850;2023-12-22T03:26:48;6.20;99.90
3942;DHT22;1985;48.592;8.850;2023-12-22T03:29:14;6.30;99.90
3942;DHT22;1985;48.592;8.850;2023-12-22T03:31:39;6.40;99.90
3942;DHT22;1985;48.592;8.850;2023-12-22T03:34:05;6.60;99.90
3942;DHT22;1985;48.592;8.850;2023-12-22T03:36:31;6.70;99.90
3942;DHT22;1985;48.592;8.850;2023-12-22T03:38:57;6.80;99.90
3942;DHT22;1985;48.592;8.850;2023-12-22T03:41:22;6.70;99.90
3942;DHT22;1985;48.592;8.850;2023-12-22T03:43:48;6.70;99.90
3942;DHT22;1985;48.592;8.850;2023-12-22T03:46:14;6.70;99.90
3942;DHT22;1985;48.592;8.850;2023-12-22T03:48:39;6.70;99.90
3942;DHT22;1985;48.592;8.850;2023-12-22T03:51:05;6.70;99.90
3942;DHT22;1985;48.592;8.850;2023-12-22T03:53:31;6.80;99.90
3942;DHT22;1985;48.592;8.850;2023-12-22T03:55:56;6.90;99.90
3942;DHT22;1985;48.592;8.850;2023-12-22T03:58:22;7.00;99.90
3942;DHT22;1985;48.592;8.850;2023-12-22T04:00:48;7.00;99.90
3942;DHT22;1985;48.592;8.850;2023-12-22T04:03:14;7.00;99.90
3942;DHT22;1985;48.592;8.850;2023-12-22T04:05:39;7.00;99.90
3942;DHT22;1985;48.592;8.850;2023-12-22T04:08:06;7.10;99.90
3942;DHT22;1985;48.592;8.850;2023-12-22T04:10:32;7.10;99.90
3942;DHT22;1985;48.592;8.850;2023-12-22T04:12:57;7.00;99.90
3942;DHT22;1985;48.592;8.850;2023-12-22T04:15:23;7.00;99.90
3942;DHT22;1985;48.592;8.850;2023-12-22T04:17:49;7.10;99.90
3942;DHT22;1985;48.592;8.850;2023-12-22T04:20:15;7.10;99.90
3942;DHT22;1985;48.592;8.850;2023-12-22T04:22:41;7.10;99.90
3942;DHT22;1985;48.592;8.850;2023-12-22T04:25:07;6.90;99.90
3942;DHT22;1985;48.592;8.850;2023-12-22T04:27:33;6.90;99.90
3942;DHT22;1985;48.592;8.850;2023-12-22T04:29:59;6.80;99.90
3942;DHT22;1985;48.592;8.850;2023-12-22T04:32:25;6.60;99.90
3942;DHT22;1985;48.592;8.850;2023-12-22T04:34:50;6.50;99.90
3942;DHT22;1985;48.592;8.850;2023-12-22T04:37:16;6.40;99.90
3942;DHT22;1985;48.592;8.850;2023-12-22T04:39:42;6.40;99.90
3942;DHT22;1985;48.592;8.850;2023-12-22T04:42:07;6.30;99.90
3942;DHT22;1985;48.592;8.850;2023-12-22T04:44:33;6.30;99.90
3942;DHT22;1985;48.592;8.850;2023-12-22T04:46:58;6.30;99.90
3942;DHT22;1985;48.592;8.850;2023-12-22T04:49:24;6.30;99.90
3942;DHT22;1985;48.592;8.850;2023-12-22T04:51:50;6.20;99.90
3942;DHT22;1985;48.592;8.850;2023-12-22T04:54:15;6.20;99.90
3942;DHT22;1985;48.592;8.850;2023-12-22T04:56:41;6.20;99.90
3942;DHT22;1985;48.592;8.850;2023-12-22T04:59:06;6.30;99.90
3942;DHT22;1985;48.592;8.850;2023-12-22T05:01:32;6.30;99.90
3942;DHT22;1985;48.592;8.850;2023-12-22T05:03:58;6.30;99.90
3942;DHT22;1985;48.592;8.850;2023-12-22T05:06:23;6.30;99.90
3942;DHT22;1985;48.592;8.850;2023-12-22T05:08:49;6.30;99.90
3942;DHT22;1985;48.592;8.850;2023-12-22T05:11:15;6.30;99.90
3942;DHT22;1985;48.592;8.850;2023-12-22T05:13:40;6.30;99.90
3942;DHT22;1985;48.592;8.850;2023-12-22T05:16:08;6.40;99.90
3942;DHT22;1985;48.592;8.850;2023-12-22T05:18:33;6.50;99.90
3942;DHT22;1985;48.592;8.850;2023-12-22T05:20:59;6.60;99.90
3942;DHT22;1985;48.592;8.850;2023-12-22T05:23:25;6.80;99.90
3942;DHT22;1985;48.592;8.850;2023-12-22T05:25:50;6.90;99.90
3942;DHT22;1985;48.592;8.850;2023-12-22T05:28:16;6.90;99.90
3942;DHT22;1985;48.592;8.850;2023-12-22T05:30:42;6.90;99.90
3942;DHT22;1985;48.592;8.850;2023-12-22T05:33:08;7.10;99.90
3942;DHT22;1985;48.592;8.850;2023-12-22T05:35:33;7.10;99.90
3942;DHT22;1985;48.592;8.850;2023-12-22T05:37:59;7.10;99.90
3942;DHT22;1985;48.592;8.850;2023-12-22T05:40:25;7.10;99.90
3942;DHT22;1985;48.592;8.850;2023-12-22T05:42:50;7.10;99.90
3942;DHT22;1985;48.592;8.850;2023-12-22T05:45:16;7.20;99.90
3942;DHT22;1985;48.592;8.850;2023-12-22T05:47:42;7.20;99.90
3942;DHT22;1985;48.592;8.850;2023-12-22T05:50:08;7.20;99.90
3942;DHT22;1985;48.592;8.850;2023-12-22T05:52:34;7.20;99.90
3942;DHT22;1985;48.592;8.850;2023-12-22T05:54:59;7.20;99.90
3942;DHT22;1985;48.592;8.850;2023-12-22T05:57:25;7.20;99.90
3942;DHT22;1985;48.592;8.850;2023-12-22T05:59:51;7.20;99.90
3942;DHT22;1985;48.592;8.850;2023-12-22T06:02:17;7.20;99.90
3942;DHT22;1985;48.592;8.850;2023-12-22T06:04:42;7.20;99.90
3942;DHT22;1985;48.592;8.850;2023-12-22T06:07:10;7.30;99.90
3942;DHT22;1985;48.592;8.850;2023-12-22T06:09:35;7.30;99.90
3942;DHT22;1985;48.592;8.850;2023-12-22T06:12:01;7.30;99.90
3942;DHT22;1985;48.592;8.850;2023-12-22T06:14:27;7.10;99.90
3942;DHT22;1985;48.592;8.850;2023-12-22T06:16:52;6.90;99.90
3942;DHT22;1985;48.592;8.850;2023-12-22T06:19:19;6.70;99.90
3942;DHT22;1985;48.592;8.850;2023-12-22T06:21:45;6.50;99.90
3942;DHT22;1985;48.592;8.850;2023-12-22T06:24:10;6.30;99.90
3942;DHT22;1985;48.592;8.850;2023-12-22T06:26:36;6.20;99.90
3942;DHT22;1985;48.592;8.850;2023-12-22T06:29:02;6.10;99.90
3942;DHT22;1985;48.592;8.850;2023-12-22T06:31:29;6.10;99.90
3942;DHT22;1985;48.592;8.850;2023-12-22T06:33:54;6.10;99.90
3942;DHT22;1985;48.592;8.850;2023-12-22T06:36:24;6.00;99.90
3942;DHT22;1985;48.592;8.850;2023-12-22T06:38:51;6.10;99.90
3942;DHT22;1985;48.592;8.850;2023-12-22T06:43:49;6.10;99.90
3942;DHT22;1985;48.592;8.850;2023-12-22T06:46:17;6.10;99.90
3942;DHT22;1985;48.592;8.850;2023-12-22T06:48:43;6.10;99.90
3942;DHT22;1985;48.592;8.850;2023-12-22T06:53:48;6.20;99.90
3942;DHT22;1985;48.592;8.850;2023-12-22T06:56:18;6.30;99.90
3942;DHT22;1985;48.592;8.850;2023-12-22T06:58:44;6.40;99.90
3942;DHT22;1985;48.592;8.850;2023-12-22T07:01:17;6.30;99.90
3942;DHT22;1985;48.592;8.850;2023-12-22T07:03:42;6.30;99.90
3942;DHT22;1985;48.592;8.850;2023-12-22T07:06:08;6.40;99.90
3942;DHT22;1985;48.592;8.850;2023-12-22T07:08:34;6.40;99.90
3942;DHT22;1985;48.592;8.850;2023-12-22T07:10:59;6.30;99.90
3942;DHT22;1985;48.592;8.850;2023-12-22T07:13:25;6.40;99.90
3942;DHT22;1985;48.592;8.850;2023-12-22T07:15:51;6.30;99.90
3942;DHT22;1985;48.592;8.850;2023-12-22T07:18:16;6.30;99.90
3942;DHT22;1985;48.592;8.850;2023-12-22T07:20:42;6.30;99.90
3942;DHT22;1985;48.592;8.850;2023-12-22T07:23:10;6.40;99.90
3942;DHT22;1985;48.592;8.850;2023-12-22T07:25:39;6.50;99.90
3942;DHT22;1985;48.592;8.850;2023-12-22T07:28:05;6.50;99.90
3942;DHT22;1985;48.592;8.850;2023-12-22T07:30:31;6.40;99.90
3942;DHT22;1985;48.592;8.850;2023-12-22T07:32:56;6.40;99.90
3942;DHT22;1985;48.592;8.850;2023-12-22T07:35:22;6.30;99.90
3942;DHT22;1985;48.592;8.850;2023-12-22T07:37:48;6.30;99.90
3942;DHT22;1985;48.592;8.850;2023-12-22T07:40:13;6.20;99.90
3942;DHT22;1985;48.592;8.850;2023-12-22T07:42:39;6.20;99.90
3942;DHT22;1985;48.592;8.850;2023-12-22T07:45:05;6.20;99.90
3942;DHT22;1985;48.592;8.850;2023-12-22T07:47:32;6.20;99.90
3942;DHT22;1985;48.592;8.850;2023-12-22T07:49:58;6.30;99.90
3942;DHT22;1985;48.592;8.850;2023-12-22T07:52:23;6.30;99.90
3942;DHT22;1985;48.592;8.850;2023-12-22T07:54:49;6.40;99.90
3942;DHT22;1985;48.592;8.850;2023-12-22T07:57:15;6.50;99.90
3942;DHT22;1985;48.592;8.850;2023-12-22T07:59:40;6.60;99.90
3942;DHT22;1985;48.592;8.850;2023-12-22T08:02:06;6.80;99.90
3942;DHT22;1985;48.592;8.850;2023-12-22T08:04:32;6.90;99.90
3942;DHT22;1985;48.592;8.850;2023-12-22T08:06:57;6.90;99.90
3942;DHT22;1985;48.592;8.850;2023-12-22T08:09:23;6.90;99.90
3942;DHT22;1985;48.592;8.850;2023-12-22T08:11:49;7.00;99.90
3942;DHT22;1985;48.592;8.850;2023-12-22T08:14:21;7.10;99.90
3942;DHT22;1985;48.592;8.850;2023-12-22T08:16:47;7.20;99.90
3942;DHT22;1985;48.592;8.850;2023-12-22T08:19:12;7.20;99.90
3942;DHT22;1985;48.592;8.850;2023-12-22T08:21:38;7.20;99.90
3942;DHT22;1985;48.592;8.850;2023-12-22T08:24:04;7.20;99.90
3942;DHT22;1985;48.592;8.850;2023-12-22T08:26:29;6.80;99.90
3942;DHT22;1985;48.592;8.850;2023-12-22T08:28:55;6.70;99.90
3942;DHT22;1985;48.592;8.850;2023-12-22T08:31:21;6.60;99.90
3942;DHT22;1985;48.592;8.850;2023-12-22T08:33:46;6.60;99.90
3942;DHT22;1985;48.592;8.850;2023-12-22T08:36:12;6.60;99.90
3942;DHT22;1985;48.592;8.850;2023-12-22T08:38:38;6.70;99.90
3942;DHT22;1985;48.592;8.850;2023-12-22T08:41:07;6.70;99.90
3942;DHT22;1985;48.592;8.850;2023-12-22T08:43:33;6.70;99.90
3942;DHT22;1985;48.592;8.850;2023-12-22T08:45:58;6.80;99.90
3942;DHT22;1985;48.592;8.850;2023-12-22T08:48:24;7.00;99.90
3942;DHT22;1985;48.592;8.850;2023-12-22T08:50:50;7.00;99.90
3942;DHT22;1985;48.592;8.850;2023-12-22T08:53:15;7.10;99.90
3942;DHT22;1985;48.592;8.850;2023-12-22T08:55:41;7.20;99.90
3942;DHT22;1985;48.592;8.850;2023-12-22T08:58:07;7.20;99.90
3942;DHT22;1985;48.592;8.850;2023-12-22T09:00:32;7.30;99.90
3942;DHT22;1985;48.592;8.850;2023-12-22T09:02:58;7.30;99.90
3942;DHT22;1985;48.592;8.850;2023-12-22T09:05:24;7.40;99.90
3942;DHT22;1985;48.592;8.850;2023-12-22T09:07:50;7.40;99.90
3942;DHT22;1985;48.592;8.850;2023-12-22T09:10:15;7.40;99.90
3942;DHT22;1985;48.592;8.850;2023-12-22T09:12:41;7.30;99.90
3942;DHT22;1985;48.592;8.850;2023-12-22T09:15:07;7.30;99.90
3942;DHT22;1985;48.592;8.850;2023-12-22T09:17:33;7.20;99.90
3942;DHT22;1985;48.592;8.850;2023-12-22T09:20:00;6.90;99.90
3942;DHT22;1985;48.592;8.850;2023-12-22T09:22:26;6.90;99.90
3942;DHT22;1985;48.592;8.850;2023-12-22T09:24:52;6.80;99.90
3942;DHT22;1985;48.592;8.850;2023-12-22T09:27:17;6.70;99.90
3942;DHT22;1985;48.592;8.850;2023-12-22T09:29:43;6.70;99.90
3942;DHT22;1985;48.592;8.850;2023-12-22T09:32:09;6.60;99.90
3942;DHT22;1985;48.592;8.850;2023-12-22T09:34:35;6.50;99.90
3942;DHT22;1985;48.592;8.850;2023-12-22T09:37:00;6.50;99.90
3942;DHT22;1985;48.592;8.850;2023-12-22T09:39:26;6.50;99.90
3942;DHT22;1985;48.592;8.850;2023-12-22T09:41:54;6.60;99.90
3942;DHT22;1985;48.592;8.850;2023-12-22T09:44:21;6.60;99.90
3942;DHT22;1985;48.592;8.850;2023-12-22T09:46:50;6.60;99.90
3942;DHT22;1985;48.592;8.850;2023-12-22T09:49:18;6.70;99.90
3942;DHT22;1985;48.592;8.850;2023-12-22T09:51:46;6.70;99.90
3942;DHT22;1985;48.592;8.850;2023-12-22T09:54:13;6.80;99.90
3942;DHT22;1985;48.592;8.850;2023-12-22T09:56:41;6.80;99.90
3942;DHT22;1985;48.592;8.850;2023-12-22T09:59:12;6.80;99.90
3942;DHT22;1985;48.592;8.850;2023-12-22T10:01:45;6.80;99.90
3942;DHT22;1985;48.592;8.850;2023-12-22T10:04:14;6.90;99.90
3942;DHT22;1985;48.592;8.850;2023-12-22T10:06:44;7.00;99.90
3942;DHT22;1985;48.592;8.850;2023-12-22T10:09:13;7.10;99.90
3942;DHT22;1985;48.592;8.850;2023-12-22T10:11:41;7.10;99.90
3942;DHT22;1985;48.592;8.850;2023-12-22T10:14:10;7.20;99.90
3942;DHT22;1985;48.592;8.850;2023-12-22T10:16:38;7.30;99.90
3942;DHT22;1985;48.592;8.850;2023-12-22T10:19:05;7.30;99.90
3942;DHT22;1985;48.592;8.850;2023-12-22T10:21:32;7.20;99.90
3942;DHT22;1985;48.592;8.850;2023-12-22T10:23:58;7.20;99.90
3942;DHT22;1985;48.592;8.850;2023-12-22T10:26:23;7.10;99.90
3942;DHT22;1985;48.592;8.850;2023-12-22T10:28:50;7.00;99.90
3942;DHT22;1985;48.592;8.850;2023-12-22T10:31:17;7.00;99.90
3942;DHT22;1985;48.592;8.850;2023-12-22T10:33:43;7.00;99.90
3942;DHT22;1985;48.592;8.850;2023-12-22T10:36:09;6.90;99.90
3942;DHT22;1985;48.592;8.850;2023-12-22T10:38:35;6.90;99.90
3942;DHT22;1985;48.592;8.850;2023-12-22T10:41:06;6.80;99.90
3942;DHT22;1985;48.592;8.850;2023-12-22T10:43:39;6.80;99.90
3942;DHT22;1985;48.592;8.850;2023-12-22T10:46:09;6.90;99.90
3942;DHT22;1985;48.592;8.850;2023-12-22T10:48:36;6.80;99.90
3942;DHT22;1985;48.592;8.850;2023-12-22T10:51:02;6.80;99.90
3942;DHT22;1985;48.592;8.850;2023-12-22T10:53:28;6.70;99.90
3942;DHT22;1985;48.592;8.850;2023-12-22T10:55:54;6.70;99.90
3942;DHT22;1985;48.592;8.850;2023-12-22T10:58:20;6.80;99.90
3942;DHT22;1985;48.592;8.850;2023-12-22T11:00:48;6.80;99.90
3942;DHT22;1985;48.592;8.850;2023-12-22T11:03:17;6.70;99.90
3942;DHT22;1985;48.592;8.850;2023-12-22T11:05:48;6.70;99.90
3942;DHT22;1985;48.592;8.850;2023-12-22T11:08:15;6.70;99.90
3942;DHT22;1985;48.592;8.850;2023-12-22T11:10:44;6.70;99.90
3942;DHT22;1985;48.592;8.850;2023-12-22T11:13:14;6.70;99.90
3942;DHT22;1985;48.592;8.850;2023-12-22T11:15:42;6.70;99.90
3942;DHT22;1985;48.592;8.850;2023-12-22T11:18:08;6.70;99.90
3942;DHT22;1985;48.592;8.850;2023-12-22T11:20:35;6.60;99.90
3942;DHT22;1985;48.592;8.850;2023-12-22T11:23:04;6.60;99.90
3942;DHT22;1985;48.592;8.850;2023-12-22T11:25:31;6.70;99.90
3942;DHT22;1985;48.592;8.850;2023-12-22T11:27:59;6.70;99.90
3942;DHT22;1985;48.592;8.850;2023-12-22T11:30:26;6.70;99.90
3942;DHT22;1985;48.592;8.850;2023-12-22T11:32:54;6.80;99.90
3942;DHT22;1985;48.592;8.850;2023-12-22T11:35:23;6.80;99.90
3942;DHT22;1985;48.592;8.850;2023-12-22T11:37:49;6.70;99.90
3942;DHT22;1985;48.592;8.850;2023-12-22T11:40:15;6.80;99.90
3942;DHT22;1985;48.592;8.850;2023-12-22T11:42:43;6.80;99.90
3942;DHT22;1985;48.592;8.850;2023-12-22T11:45:11;6.80;99.90
3942;DHT22;1985;48.592;8.850;2023-12-22T11:47:45;6.80;99.90
3942;DHT22;1985;48.592;8.850;2023-12-22T11:50:11;6.90;99.90
3942;DHT22;1985;48.592;8.850;2023-12-22T11:52:37;6.90;99.90
3942;DHT22;1985;48.592;8.850;2023-12-22T11:55:05;6.90;99.90
3942;DHT22;1985;48.592;8.850;2023-12-22T11:57:33;6.90;99.90
3942;DHT22;1985;48.592;8.850;2023-12-22T12:02:54;6.80;99.90
3942;DHT22;1985;48.592;8.850;2023-12-22T12:05:20;6.80;99.90
3942;DHT22;1985;48.592;8.850;2023-12-22T12:07:47;6.90;99.90
3942;DHT22;1985;48.592;8.850;2023-12-22T12:15:33;6.80;99.90
3942;DHT22;1985;48.592;8.850;2023-12-22T12:17:59;6.80;99.90
3942;DHT22;1985;48.592;8.850;2023-12-22T12:20:25;6.80;99.90
3942;DHT22;1985;48.592;8.850;2023-12-22T12:22:53;6.80;99.90
3942;DHT22;1985;48.592;8.850;2023-12-22T12:25:28;6.80;99.90
3942;DHT22;1985;48.592;8.850;2023-12-22T12:28:04;6.80;99.90
3942;DHT22;1985;48.592;8.850;2023-12-22T12:30:31;6.90;99.90
3942;DHT22;1985;48.592;8.850;2023-12-22T12:32:59;6.90;99.90
3942;DHT22;1985;48.592;8.850;2023-12-22T12:35:32;6.90;99.90
3942;DHT22;1985;48.592;8.850;2023-12-22T12:37:59;6.90;99.90
3942;DHT22;1985;48.592;8.850;2023-12-22T12:40:25;6.90;99.90
3942;DHT22;1985;48.592;8.850;2023-12-22T12:42:54;6.90;99.90
3942;DHT22;1985;48.592;8.850;2023-12-22T12:45:23;6.90;99.90
3942;DHT22;1985;48.592;8.850;2023-12-22T12:47:59;7.00;99.90
3942;DHT22;1985;48.592;8.850;2023-12-22T12:50:25;6.90;99.90
3942;DHT22;1985;48.592;8.850;2023-12-22T12:52:52;7.00;99.90
3942;DHT22;1985;48.592;8.850;2023-12-22T12:55:23;7.00;99.90
3942;DHT22;1985;48.592;8.850;2023-12-22T12:57:53;7.10;99.90
3942;DHT22;1985;48.592;8.850;2023-12-22T13:03:02;7.20;99.90
3942;DHT22;1985;48.592;8.850;2023-12-22T13:05:31;7.20;99.90
3942;DHT22;1985;48.592;8.850;2023-12-22T13:08:13;7.20;99.90
3942;DHT22;1985;48.592;8.850;2023-12-22T13:10:40;7.20;99.90
3942;DHT22;1985;48.592;8.850;2023-12-22T13:13:06;7.20;99.90
3942;DHT22;1985;48.592;8.850;2023-12-22T13:15:32;7.30;99.90
3942;DHT22;1985;48.592;8.850;2023-12-22T13:17:58;7.30;99.90
3942;DHT22;1985;48.592;8.850;2023-12-22T13:20:24;7.30;99.90
3942;DHT22;1985;48.592;8.850;2023-12-22T13:22:50;7.40;99.90
3942;DHT22;1985;48.592;8.850;2023-12-22T13:25:16;7.40;99.90
3942;DHT22;1985;48.592;8.850;2023-12-22T13:27:49;7.40;99.90
3942;DHT22;1985;48.592;8.850;2023-12-22T13:30:37;7.40;99.90
3942;DHT22;1985;48.592;8.850;2023-12-22T13:33:06;7.50;99.90
3942;DHT22;1985;48.592;8.850;2023-12-22T13:35:33;7.50;99.90
3942;DHT22;1985;48.592;8.850;2023-12-22T13:38:04;7.50;99.90
3942;DHT22;1985;48.592;8.850;2023-12-22T13:40:30;7.50;99.90
3942;DHT22;1985;48.592;8.850;2023-12-22T13:42:57;7.60;99.90
3942;DHT22;1985;48.592;8.850;2023-12-22T13:45:27;7.60;99.90
3942;DHT22;1985;48.592;8.850;2023-12-22T13:47:53;7.60;99.90
3942;DHT22;1985;48.592;8.850;2023-12-22T13:50:19;7.70;99.90
3942;DHT22;1985;48.592;8.850;2023-12-22T13:52:48;7.70;99.90
3942;DHT22;1985;48.592;8.850;2023-12-22T13:55:16;7.70;99.90
3942;DHT22;1985;48.592;8.850;2023-12-22T13:57:44;7.70;99.90
3942;DHT22;1985;48.592;8.850;2023-12-22T14:02:48;7.70;99.90
3942;DHT22;1985;48.592;8.850;2023-12-22T14:05:17;7.70;99.90
3942;DHT22;1985;48.592;8.850;2023-12-22T14:07:46;7.70;99.90
3942;DHT22;1985;48.592;8.850;2023-12-22T14:10:13;7.70;99.90
3942;DHT22;1985;48.592;8.850;2023-12-22T14:12:39;7.70;99.90
3942;DHT22;1985;48.592;8.850;2023-12-22T14:15:09;7.70;99.90
3942;DHT22;1985;48.592;8.850;2023-12-22T14:17:35;7.70;99.90
3942;DHT22;1985;48.592;8.850;2023-12-22T14:20:01;7.70;99.90
3942;DHT22;1985;48.592;8.850;2023-12-22T14:22:27;7.70;99.90
3942;DHT22;1985;48.592;8.850;2023-12-22T14:24:53;7.70;99.90
3942;DHT22;1985;48.592;8.850;2023-12-22T14:27:22;7.70;99.90
3942;DHT22;1985;48.592;8.850;2023-12-22T14:29:48;7.70;99.90
3942;DHT22;1985;48.592;8.850;2023-12-22T14:32:14;7.70;99.90
3942;DHT22;1985;48.592;8.850;2023-12-22T14:34:47;7.70;99.90
3942;DHT22;1985;48.592;8.850;2023-12-22T14:37:13;7.70;99.90
3942;DHT22;1985;48.592;8.850;2023-12-22T14:39:39;7.70;99.90
3942;DHT22;1985;48.592;8.850;2023-12-22T14:42:05;7.80;99.90
3942;DHT22;1985;48.592;8.850;2023-12-22T14:44:31;7.80;99.90
3942;DHT22;1985;48.592;8.850;2023-12-22T14:46:57;7.80;99.90
3942;DHT22;1985;48.592;8.850;2023-12-22T14:49:23;7.90;99.90
3942;DHT22;1985;48.592;8.850;2023-12-22T14:51:48;7.90;99.90
3942;DHT22;1985;48.592;8.850;2023-12-22T14:54:20;8.00;99.90
3942;DHT22;1985;48.592;8.850;2023-12-22T14:56:46;8.00;99.90
3942;DHT22;1985;48.592;8.850;2023-12-22T14:59:12;7.90;99.90
3942;DHT22;1985;48.592;8.850;2023-12-22T15:01:42;7.90;99.90
3942;DHT22;1985;48.592;8.850;2023-12-22T15:04:08;7.90;99.90
3942;DHT22;1985;48.592;8.850;2023-12-22T15:06:38;7.90;99.90
3942;DHT22;1985;48.592;8.850;2023-12-22T15:09:05;7.90;99.90
3942;DHT22;1985;48.592;8.850;2023-12-22T15:11:31;8.00;99.90
3942;DHT22;1985;48.592;8.850;2023-12-22T15:13:57;8.00;99.90
3942;DHT22;1985;48.592;8.850;2023-12-22T15:16:23;8.00;99.90
3942;DHT22;1985;48.592;8.850;2023-12-22T15:18:48;8.00;99.90
3942;DHT22;1985;48.592;8.850;2023-12-22T15:21:23;7.90;99.90
3942;DHT22;1985;48.592;8.850;2023-12-22T15:23:50;8.00;99.90
3942;DHT22;1985;48.592;8.850;2023-12-22T15:26:23;8.00;99.90
3942;DHT22;1985;48.592;8.850;2023-12-22T15:28:49;8.00;99.90
3942;DHT22;1985;48.592;8.850;2023-12-22T15:31:15;7.90;99.90
3942;DHT22;1985;48.592;8.850;2023-12-22T15:33:40;7.90;99.90
3942;DHT22;1985;48.592;8.850;2023-12-22T15:36:06;7.90;99.90
3942;DHT22;1985;48.592;8.850;2023-12-22T15:38:32;7.80;99.90
3942;DHT22;1985;48.592;8.850;2023-12-22T15:41:01;7.90;99.90
3942;DHT22;1985;48.592;8.850;2023-12-22T15:43:27;7.80;99.90
3942;DHT22;1985;48.592;8.850;2023-12-22T15:45:53;7.80;99.90
3942;DHT22;1985;48.592;8.850;2023-12-22T15:48:19;7.80;99.90
3942;DHT22;1985;48.592;8.850;2023-12-22T15:50:44;7.70;99.90
3942;DHT22;1985;48.592;8.850;2023-12-22T15:53:12;7.70;99.90
3942;DHT22;1985;48.592;8.850;2023-12-22T15:55:37;7.70;99.90
3942;DHT22;1985;48.592;8.850;2023-12-22T15:58:03;7.60;99.90
3942;DHT22;1985;48.592;8.850;2023-12-22T16:00:29;7.60;99.90
3942;DHT22;1985;48.592;8.850;2023-12-22T16:02:54;7.60;99.90
3942;DHT22;1985;48.592;8.850;2023-12-22T16:05:20;7.60;99.90
3942;DHT22;1985;48.592;8.850;2023-12-22T16:07:46;7.60;99.90
3942;DHT22;1985;48.592;8.850;2023-12-22T16:10:11;7.60;99.90
3942;DHT22;1985;48.592;8.850;2023-12-22T16:12:38;7.60;99.90
3942;DHT22;1985;48.592;8.850;2023-12-22T16:15:07;7.60;99.90
3942;DHT22;1985;48.592;8.850;2023-12-22T16:17:33;7.70;99.90
3942;DHT22;1985;48.592;8.850;2023-12-22T16:19:59;7.70;99.90
3942;DHT22;1985;48.592;8.850;2023-12-22T16:22:25;7.70;99.90
3942;DHT22;1985;48.592;8.850;2023-12-22T16:24:50;7.80;99.90
3942;DHT22;1985;48.592;8.850;2023-12-22T16:27:16;7.80;99.90
3942;DHT22;1985;48.592;8.850;2023-12-22T16:29:42;7.80;99.90
3942;DHT22;1985;48.592;8.850;2023-12-22T16:32:09;7.80;99.90
3942;DHT22;1985;48.592;8.850;2023-12-22T16:34:36;7.80;99.90